createdAt,value
2022-10-11T00:01:25.343Z,12.95
2022-10-11T00:03:52.112Z,6.15
2022-10-11T00:06:18.882Z,9.93
2022-10-11T00:08:45.661Z,8.48
2022-10-11T00:11:12.403Z,11.65
2022-10-11T00:13:39.201Z,9.20
2022-10-11T00:16:11.390Z,6.60
2022-10-11T00:18:39.031Z,7.53
2022-10-11T00:21:08.874Z,7.07
2022-10-11T00:23:36.010Z,9.63
2022-10-11T00:26:05.688Z,6.88
2022-10-11T00:28:32.833Z,6.57
2022-10-11T00:30:59.996Z,6.03
2022-10-11T00:33:26.877Z,4.93
2022-10-11T00:35:53.673Z,7.40
2022-10-11T00:38:20.550Z,8.02
2022-10-11T00:40:47.355Z,6.32
2022-10-11T00:43:18.033Z,7.97
2022-10-11T00:45:53.601Z,5.80
2022-10-11T00:48:38.758Z,6.00
2022-10-11T00:51:14.172Z,7.80
2022-10-11T00:53:41.763Z,6.13
2022-10-11T00:56:24.986Z,4.50
2022-10-11T00:58:52.511Z,5.93
2022-10-11T01:01:19.433Z,5.32
2022-10-11T01:03:46.944Z,6.15
2022-10-11T01:06:13.720Z,11.00
2022-10-11T01:08:40.688Z,7.35
2022-10-11T01:11:14.661Z,10.25
2022-10-11T01:14:01.634Z,5.28
2022-10-11T01:16:55.128Z,8.10
2022-10-11T01:19:46.201Z,6.30
2022-10-11T01:22:48.324Z,6.00
2022-10-11T01:25:46.935Z,5.28
2022-10-11T01:28:32.503Z,7.35
2022-10-11T01:31:07.426Z,6.23
2022-10-11T01:33:55.539Z,10.15
2022-10-11T01:36:28.072Z,8.57
2022-10-11T01:39:03.686Z,10.82
2022-10-11T01:41:43.407Z,11.90
2022-10-11T01:44:12.660Z,14.52
2022-10-11T01:46:40.945Z,19.65
2022-10-11T01:49:08.417Z,18.95
2022-10-11T01:51:47.543Z,19.77
2022-10-11T01:54:22.670Z,20.98
2022-10-11T01:57:20.093Z,16.45
2022-10-11T02:00:14.116Z,17.25
2022-10-11T02:02:43.861Z,22.27
2022-10-11T02:05:29.397Z,20.05
2022-10-11T02:08:06.178Z,20.90
2022-10-11T02:10:39.756Z,19.42
2022-10-11T02:13:09.420Z,18.80
2022-10-11T02:15:40.180Z,17.52
2022-10-11T02:18:15.650Z,14.52
2022-10-11T02:20:43.794Z,14.38
2022-10-11T02:23:28.065Z,13.55
2022-10-11T02:25:57.232Z,12.55
2022-10-11T02:28:29.806Z,11.77
2022-10-11T02:30:58.321Z,10.65
2022-10-11T02:33:36.413Z,8.65
2022-10-11T02:36:31.272Z,9.48
2022-10-11T02:39:05.104Z,12.70
2022-10-11T02:41:38.553Z,10.98
2022-10-11T02:44:20.412Z,10.63
2022-10-11T02:46:48.235Z,8.25
2022-10-11T02:49:16.282Z,7.15
2022-10-11T02:51:43.465Z,9.60
2022-10-11T02:54:10.257Z,7.82
2022-10-11T02:56:37.038Z,6.85
2022-10-11T02:59:03.968Z,6.20
2022-10-11T03:01:30.749Z,8.27
2022-10-11T03:03:57.608Z,7.28
2022-10-11T03:06:24.422Z,5.75
2022-10-11T03:08:51.174Z,8.00
2022-10-11T03:11:17.960Z,5.45
2022-10-11T03:13:44.783Z,8.57
2022-10-11T03:16:11.954Z,5.53
2022-10-11T03:18:38.963Z,4.47
2022-10-11T03:21:06.035Z,7.88
2022-10-11T03:23:32.794Z,5.78
2022-10-11T03:25:59.582Z,7.85
2022-10-11T03:28:26.586Z,8.90
2022-10-11T03:30:53.438Z,8.65
2022-10-11T03:33:20.435Z,7.03
2022-10-11T03:35:48.819Z,7.00
2022-10-11T03:38:19.258Z,6.32
2022-10-11T03:40:46.186Z,9.30
2022-10-11T03:43:13.335Z,12.95
2022-10-11T03:45:42.428Z,9.93
2022-10-11T03:48:09.722Z,11.88
2022-10-11T03:50:36.771Z,8.52
2022-10-11T03:53:04.235Z,7.47
2022-10-11T03:55:30.999Z,7.85
2022-10-11T03:57:57.817Z,8.88
2022-10-11T04:00:24.594Z,9.73
2022-10-11T04:02:51.481Z,8.27
2022-10-11T04:05:18.451Z,6.25
2022-10-11T04:07:45.244Z,9.43
2022-10-11T04:10:12.002Z,6.75
2022-10-11T04:12:39.324Z,6.88
2022-10-11T04:15:07.422Z,6.10
2022-10-11T04:17:34.255Z,6.15
2022-10-11T04:20:01.038Z,8.13
2022-10-11T04:22:27.809Z,11.48
2022-10-11T04:24:54.550Z,8.30
2022-10-11T04:27:21.552Z,9.18
2022-10-11T04:29:48.308Z,9.25
2022-10-11T04:32:15.102Z,10.50
2022-10-11T04:34:42.173Z,9.38
2022-10-11T04:37:08.899Z,10.18
2022-10-11T04:39:35.690Z,9.38
2022-10-11T04:42:02.546Z,8.50
2022-10-11T04:44:29.291Z,6.57
2022-10-11T04:46:56.114Z,6.30
2022-10-11T04:49:23.262Z,6.88
2022-10-11T04:51:50.099Z,6.18
2022-10-11T04:54:16.856Z,7.45
2022-10-11T04:56:43.708Z,5.65
2022-10-11T04:59:10.803Z,6.47
2022-10-11T05:01:37.717Z,5.82
2022-10-11T05:04:04.623Z,6.13
2022-10-11T05:06:31.651Z,13.90
2022-10-11T05:08:58.390Z,6.72
2022-10-11T05:11:25.197Z,9.52
2022-10-11T05:13:52.005Z,8.95
2022-10-11T05:16:19.005Z,11.52
2022-10-11T05:18:45.768Z,12.23
2022-10-11T05:21:18.450Z,10.35
2022-10-11T05:23:46.686Z,12.80
2022-10-11T05:26:13.885Z,7.32
2022-10-11T05:28:40.822Z,9.95
2022-10-11T05:31:07.752Z,7.25
2022-10-11T05:33:34.732Z,8.15
2022-10-11T05:36:01.838Z,11.15
2022-10-11T05:38:28.956Z,6.22
2022-10-11T05:41:00.108Z,5.97
2022-10-11T05:43:27.357Z,7.65
2022-10-11T05:45:54.303Z,12.07
2022-10-11T05:48:21.052Z,10.60
2022-10-11T05:50:48.129Z,10.10
2022-10-11T05:53:14.889Z,6.82
2022-10-11T05:55:43.602Z,6.25
2022-10-11T05:58:13.589Z,8.20
2022-10-11T06:00:41.008Z,5.88
2022-10-11T06:03:08.759Z,12.13
2022-10-11T06:05:36.067Z,9.02
2022-10-11T06:08:04.083Z,5.63
2022-10-11T06:10:30.901Z,5.65
2022-10-11T06:12:57.816Z,7.18
2022-10-11T06:15:24.893Z,13.45
2022-10-11T06:17:51.757Z,4.03
2022-10-11T06:20:18.580Z,4.88
2022-10-11T06:22:45.386Z,5.28
2022-10-11T06:25:12.306Z,7.65
2022-10-11T06:27:39.030Z,3.75
2022-10-11T06:30:07.369Z,5.20
2022-10-11T06:32:34.145Z,3.90
2022-10-11T06:35:03.269Z,4.78
2022-10-11T06:37:30.172Z,7.93
2022-10-11T06:39:56.940Z,4.32
2022-10-11T06:42:23.743Z,3.55
2022-10-11T06:44:50.533Z,6.00
2022-10-11T06:47:17.323Z,5.35
2022-10-11T06:49:44.088Z,4.32
2022-10-11T06:52:26.148Z,10.13
2022-10-11T06:54:52.888Z,3.55
2022-10-11T06:57:19.645Z,5.75
2022-10-11T06:59:46.527Z,4.57
2022-10-11T07:02:13.258Z,2.90
2022-10-11T07:04:39.973Z,10.93
2022-10-11T07:07:06.755Z,4.18
2022-10-11T07:09:34.557Z,4.75
2022-10-11T07:12:01.279Z,5.40
2022-10-11T07:14:28.180Z,3.00
2022-10-11T07:16:54.985Z,5.10
2022-10-11T07:19:21.782Z,3.78
2022-10-11T07:21:48.824Z,5.20
2022-10-11T07:24:15.627Z,3.25
2022-10-11T07:26:42.437Z,4.95
2022-10-11T07:29:10.845Z,3.47
2022-10-11T07:31:40.159Z,2.90
2022-10-11T07:34:07.065Z,2.70
2022-10-11T07:36:34.078Z,3.00
2022-10-11T07:39:00.905Z,2.20
2022-10-11T07:41:27.719Z,3.67
2022-10-11T07:43:55.120Z,3.25
2022-10-11T07:46:22.053Z,3.72
2022-10-11T07:48:50.308Z,3.00
2022-10-11T07:51:21.541Z,3.08
2022-10-11T07:53:58.260Z,3.83
2022-10-11T07:56:28.022Z,2.10
2022-10-11T07:58:58.061Z,3.30
2022-10-11T08:01:26.018Z,4.28
2022-10-11T08:03:53.710Z,3.45
2022-10-11T08:06:27.316Z,6.25
2022-10-11T08:08:54.134Z,2.40
2022-10-11T08:11:23.027Z,2.05
2022-10-11T08:13:49.990Z,1.08
2022-10-11T08:16:17.270Z,1.83
2022-10-11T08:18:44.113Z,2.53
2022-10-11T08:21:13.783Z,2.40
2022-10-11T08:23:40.612Z,1.63
2022-10-11T08:26:08.087Z,1.85
2022-10-11T08:28:35.517Z,1.33
2022-10-11T08:31:03.690Z,0.82
2022-10-11T08:33:31.069Z,1.75
2022-10-11T08:35:58.429Z,2.00
2022-10-11T08:38:25.408Z,4.00
2022-10-11T08:40:58.594Z,1.58
2022-10-11T08:43:37.513Z,2.28
2022-10-11T08:46:06.043Z,1.58
2022-10-11T08:48:43.210Z,5.85
2022-10-11T08:51:32.146Z,1.20
2022-10-11T08:54:14.021Z,1.42
2022-10-11T08:56:43.289Z,1.88
2022-10-11T08:59:13.074Z,1.65
2022-10-11T09:02:01.615Z,1.35
2022-10-11T09:04:28.657Z,3.05
2022-10-11T09:07:06.376Z,2.63
2022-10-11T09:09:57.765Z,3.83
2022-10-11T09:13:09.087Z,1.23
2022-10-11T09:15:55.837Z,4.15
2022-10-11T09:18:42.829Z,2.72
2022-10-11T09:21:18.850Z,3.50
2022-10-11T09:24:21.758Z,2.95
2022-10-11T09:26:56.520Z,6.80
2022-10-11T09:29:32.458Z,7.70
2022-10-11T09:31:59.374Z,9.35
2022-10-11T09:34:32.369Z,9.35
2022-10-11T09:37:21.217Z,13.27
2022-10-11T09:40:03.259Z,13.48
2022-10-11T09:42:29.985Z,26.73
2022-10-11T09:44:57.520Z,29.10
2022-10-11T09:47:29.471Z,20.55
2022-10-11T09:50:06.475Z,28.42
2022-10-11T09:52:33.706Z,25.15
2022-10-11T09:55:02.973Z,23.48
2022-10-11T09:57:35.665Z,29.30
2022-10-11T10:00:07.263Z,25.63
2022-10-11T10:02:58.637Z,31.15
2022-10-11T10:05:26.897Z,36.75
2022-10-11T10:08:04.729Z,36.85
2022-10-11T10:10:45.953Z,24.00
2022-10-11T10:13:22.351Z,26.25
2022-10-11T10:15:53.491Z,27.30
2022-10-11T10:18:57.814Z,31.60
2022-10-11T10:21:31.751Z,36.63
2022-10-11T10:24:03.221Z,32.60
2022-10-11T10:26:30.619Z,34.15
2022-10-11T10:29:02.931Z,33.25
2022-10-11T10:32:13.513Z,28.42
2022-10-11T10:34:55.283Z,31.45
2022-10-11T10:37:43.359Z,22.05
2022-10-11T10:40:23.073Z,29.52
2022-10-11T10:42:50.913Z,30.20
2022-10-11T10:45:21.493Z,25.88
2022-10-11T10:47:51.395Z,23.80
2022-10-11T10:50:21.164Z,26.75
2022-10-11T10:52:59.669Z,26.02
2022-10-11T10:55:41.835Z,22.98
2022-10-11T10:58:26.808Z,19.98
2022-10-11T11:01:05.187Z,23.15
2022-10-11T11:03:43.793Z,17.25
2022-10-11T11:06:27.489Z,17.80
2022-10-11T11:09:37.327Z,16.98
2022-10-11T11:12:15.128Z,20.08
2022-10-11T11:15:01.808Z,19.67
2022-10-11T11:17:34.329Z,16.13
2022-10-11T11:20:09.101Z,20.98
2022-10-11T11:22:38.915Z,23.13
2022-10-11T11:25:24.367Z,17.30
2022-10-11T11:28:13.101Z,14.35
2022-10-11T11:31:20.653Z,15.13
2022-10-11T11:33:59.618Z,16.35
2022-10-11T11:36:46.078Z,11.13
2022-10-11T11:39:35.892Z,13.43
2022-10-11T11:42:15.402Z,14.98
2022-10-11T11:44:49.304Z,13.00
2022-10-11T11:47:20.320Z,11.90
2022-10-11T11:49:53.847Z,9.10
2022-10-11T11:52:44.119Z,10.32
2022-10-11T11:55:25.336Z,13.10
2022-10-11T11:58:23.171Z,11.40
2022-10-11T12:01:37.418Z,10.80
2022-10-11T12:04:12.785Z,8.27
2022-10-11T12:06:52.435Z,6.78
2022-10-11T12:09:27.479Z,6.07
2022-10-11T12:12:25.791Z,5.10
2022-10-11T12:15:04.855Z,3.10
2022-10-11T12:17:33.341Z,2.55
2022-10-11T12:20:03.045Z,1.92
2022-10-11T12:22:29.780Z,2.60
2022-10-11T12:25:01.934Z,3.00
2022-10-11T12:27:44.326Z,2.80
2022-10-11T12:30:48.375Z,4.53
2022-10-11T12:33:25.902Z,6.18
2022-10-11T12:35:55.721Z,4.18
2022-10-11T12:38:30.188Z,3.35
2022-10-11T12:40:57.195Z,3.35
2022-10-11T12:43:28.247Z,2.53
2022-10-11T12:45:55.041Z,1.33
2022-10-11T12:48:41.093Z,4.47
2022-10-11T12:51:55.526Z,3.83
2022-10-11T12:55:03.490Z,2.63
2022-10-11T12:57:56.790Z,5.57
2022-10-11T13:00:29.664Z,5.57
2022-10-11T13:03:17.243Z,2.45
2022-10-11T13:05:49.698Z,1.60
2022-10-11T13:08:27.541Z,8.18
2022-10-11T13:10:59.256Z,2.50
2022-10-11T13:13:45.014Z,3.88
2022-10-11T13:16:18.750Z,4.25
2022-10-11T13:18:48.424Z,7.00
2022-10-11T13:21:36.241Z,3.40
2022-10-11T13:24:13.003Z,4.15
2022-10-11T13:26:41.044Z,2.17
2022-10-11T13:29:35.220Z,3.35
2022-10-11T13:32:11.073Z,3.25
2022-10-11T13:34:40.479Z,2.95
2022-10-11T13:37:12.992Z,2.13
2022-10-11T13:39:39.919Z,2.83
2022-10-11T13:42:11.721Z,5.00
2022-10-11T13:44:39.667Z,2.53
2022-10-11T13:47:06.768Z,3.67
2022-10-11T13:49:38.481Z,2.05
2022-10-11T13:52:27.139Z,3.63
2022-10-11T13:55:00.360Z,4.43
2022-10-11T13:57:35.883Z,5.57
2022-10-11T14:00:10.989Z,3.50
2022-10-11T14:02:38.299Z,5.10
2022-10-11T14:05:05.515Z,7.35
2022-10-11T14:07:38.175Z,5.60
2022-10-11T14:10:06.590Z,3.15
2022-10-11T14:12:38.506Z,3.75
2022-10-11T14:15:24.824Z,2.75
2022-10-11T14:17:51.740Z,5.47
2022-10-11T14:20:33.430Z,4.85
2022-10-11T14:23:00.265Z,5.47
2022-10-11T14:25:27.108Z,1.60
2022-10-11T14:27:54.662Z,3.33
2022-10-11T14:30:26.437Z,2.33
2022-10-11T14:32:57.674Z,3.25
2022-10-11T14:35:26.698Z,3.80
2022-10-11T14:37:53.857Z,4.97
2022-10-11T14:40:23.179Z,3.40
2022-10-11T14:42:50.474Z,3.00
2022-10-11T14:45:18.251Z,3.42
2022-10-11T14:47:45.355Z,2.97
2022-10-11T14:50:47.838Z,2.85
2022-10-11T14:53:14.635Z,1.63
2022-10-11T14:55:42.482Z,2.08
2022-10-11T14:58:11.681Z,3.00
2022-10-11T15:00:38.492Z,5.28
2022-10-11T15:03:07.321Z,3.95
2022-10-11T15:05:35.324Z,3.63
2022-10-11T15:08:07.090Z,4.63
2022-10-11T15:10:36.297Z,5.07
2022-10-11T15:13:03.914Z,3.70
2022-10-11T15:15:35.173Z,5.25
2022-10-11T15:18:04.035Z,2.88
2022-10-11T15:20:37.053Z,2.90
2022-10-11T15:23:05.471Z,4.82
2022-10-11T15:25:32.468Z,6.05
2022-10-11T15:27:59.612Z,8.95
2022-10-11T15:30:29.726Z,20.77
2022-10-11T15:32:56.519Z,13.98
2022-10-11T15:35:24.859Z,7.70
2022-10-11T15:37:57.282Z,4.88
2022-10-11T15:40:26.075Z,5.57
2022-10-11T15:42:54.537Z,4.35
2022-10-11T15:45:22.937Z,10.43
2022-10-11T15:47:50.329Z,7.38
2022-10-11T15:50:34.304Z,8.68
2022-10-11T15:53:04.804Z,10.15
2022-10-11T15:55:32.847Z,7.22
2022-10-11T15:58:01.139Z,6.72
2022-10-11T16:00:28.208Z,9.18
2022-10-11T16:02:56.660Z,10.35
2022-10-11T16:05:25.379Z,12.98
2022-10-11T16:07:53.383Z,6.72
2022-10-11T16:10:21.136Z,8.98
2022-10-11T16:12:47.956Z,7.35
2022-10-11T16:15:15.033Z,8.82
2022-10-11T16:17:41.820Z,8.63
2022-10-11T16:20:09.020Z,9.65
2022-10-11T16:22:36.187Z,14.05
2022-10-11T16:25:04.666Z,8.77
2022-10-11T16:27:31.903Z,9.18
2022-10-11T16:29:59.396Z,10.57
2022-10-11T16:32:27.383Z,9.50
2022-10-11T16:34:54.224Z,9.38
2022-10-11T16:37:20.985Z,9.55
2022-10-11T16:39:47.745Z,9.90
2022-10-11T16:42:14.555Z,13.60
2022-10-11T16:44:41.490Z,12.63
2022-10-11T16:47:08.297Z,9.57
2022-10-11T16:49:35.354Z,9.45
2022-10-11T16:52:03.941Z,10.07
2022-10-11T16:54:31.992Z,9.45
2022-10-11T16:56:59.550Z,10.45
2022-10-11T16:59:26.686Z,8.60
2022-10-11T17:01:53.616Z,14.13
2022-10-11T17:04:20.828Z,9.02
2022-10-11T17:06:47.621Z,7.60
2022-10-11T17:09:14.741Z,15.07
2022-10-11T17:11:41.891Z,10.60
2022-10-11T17:14:08.967Z,10.50
2022-10-11T17:16:35.999Z,13.18
2022-10-11T17:19:03.062Z,21.17
2022-10-11T17:21:30.116Z,19.40
2022-10-11T17:23:57.489Z,14.18
2022-10-11T17:26:26.597Z,9.85
2022-10-11T17:28:55.327Z,13.15
2022-10-11T17:31:22.795Z,15.32
2022-10-11T17:33:50.142Z,9.02
2022-10-11T17:36:27.864Z,12.38
2022-10-11T17:38:54.669Z,9.32
2022-10-11T17:41:21.586Z,8.63
2022-10-11T17:43:48.760Z,17.92
2022-10-11T17:46:17.227Z,11.43
2022-10-11T17:48:45.446Z,11.05
2022-10-11T17:51:15.797Z,12.43
2022-10-11T17:53:42.898Z,16.05
2022-10-11T17:56:12.885Z,20.98
2022-10-11T17:58:39.937Z,19.48
2022-10-11T18:01:13.494Z,18.92
2022-10-11T18:03:41.276Z,18.02
2022-10-11T18:06:10.827Z,19.48
2022-10-11T18:08:40.543Z,20.60
2022-10-11T18:11:13.194Z,22.65
2022-10-11T18:13:42.908Z,20.77
2022-10-11T18:16:10.770Z,19.77
2022-10-11T18:18:38.533Z,23.70
2022-10-11T18:21:05.770Z,20.40
2022-10-11T18:23:32.772Z,21.88
2022-10-11T18:25:59.659Z,18.38
2022-10-11T18:28:26.568Z,21.75
2022-10-11T18:30:53.360Z,19.35
2022-10-11T18:33:20.078Z,21.42
2022-10-11T18:35:46.974Z,20.23
2022-10-11T18:38:13.714Z,21.52
2022-10-11T18:40:44.744Z,19.73
2022-10-11T18:43:13.048Z,23.25
2022-10-11T18:45:39.794Z,22.63
2022-10-11T18:48:08.601Z,21.27
2022-10-11T18:50:35.749Z,22.75
2022-10-11T18:55:30.034Z,21.67
2022-10-11T18:57:56.861Z,22.02
2022-10-11T19:00:40.046Z,19.45
2022-10-11T19:03:08.007Z,27.73
2022-10-11T19:05:38.015Z,22.05
2022-10-11T19:08:05.102Z,23.75
2022-10-11T19:10:32.783Z,22.52
2022-10-11T19:12:59.540Z,22.20
2022-10-11T19:15:28.754Z,19.30
2022-10-11T19:17:55.940Z,22.58
2022-10-11T19:20:22.867Z,24.38
2022-10-11T19:22:49.730Z,18.50
2022-10-11T19:25:16.597Z,20.80
2022-10-11T19:27:43.365Z,18.95
2022-10-11T19:30:10.614Z,20.90
2022-10-11T19:32:37.473Z,19.27
2022-10-11T19:35:04.606Z,21.50
2022-10-11T19:37:31.656Z,25.10
2022-10-11T19:39:58.574Z,24.73
2022-10-11T19:42:25.347Z,24.23
2022-10-11T19:44:52.171Z,26.85
2022-10-11T19:47:18.983Z,25.10
2022-10-11T19:49:45.679Z,24.58
2022-10-11T19:52:13.344Z,25.58
2022-10-11T19:54:40.137Z,25.60
2022-10-11T19:57:08.807Z,25.80
2022-10-11T19:59:35.575Z,24.38
2022-10-11T20:02:02.355Z,23.77
2022-10-11T20:07:17.636Z,21.95
2022-10-11T20:09:44.396Z,21.92
2022-10-11T20:12:11.140Z,22.08
2022-10-11T20:14:37.945Z,23.70
2022-10-11T20:17:04.725Z,21.27
2022-10-11T20:19:31.891Z,23.40
2022-10-11T20:21:59.897Z,18.90
2022-10-11T20:24:28.944Z,21.33
2022-10-11T20:26:55.754Z,23.10
2022-10-11T20:29:28.183Z,20.65
2022-10-11T20:31:56.269Z,26.77
2022-10-11T20:34:23.438Z,21.05
2022-10-11T20:36:50.248Z,21.42
2022-10-11T20:39:17.895Z,18.58
2022-10-11T20:41:44.705Z,22.25
2022-10-11T20:44:13.154Z,16.02
2022-10-11T20:46:40.068Z,26.25
2022-10-11T20:49:09.801Z,18.02
2022-10-11T20:51:38.358Z,18.50
2022-10-11T20:54:06.111Z,16.52
2022-10-11T20:56:33.826Z,16.80
2022-10-11T20:59:00.857Z,19.15
2022-10-11T21:01:31.216Z,20.23
2022-10-11T21:03:59.595Z,18.73
2022-10-11T21:06:27.460Z,18.08
2022-10-11T21:08:59.017Z,13.88
2022-10-11T21:11:27.342Z,12.70
2022-10-11T21:13:59.177Z,15.15
2022-10-11T21:16:26.942Z,16.08
2022-10-11T21:18:55.502Z,13.57
2022-10-11T21:21:25.775Z,18.35
2022-10-11T21:23:57.181Z,16.20
2022-10-11T21:26:24.303Z,13.93
2022-10-11T21:28:51.235Z,16.02
2022-10-11T21:31:19.855Z,13.20
2022-10-11T21:33:46.871Z,14.50
2022-10-11T21:36:19.348Z,13.93
2022-10-11T21:38:46.514Z,12.93
2022-10-11T21:41:19.332Z,19.45
2022-10-11T21:43:47.287Z,14.18
2022-10-11T21:46:18.456Z,13.23
2022-10-11T21:48:45.732Z,13.30
2022-10-11T21:51:22.290Z,13.85
2022-10-11T21:53:49.361Z,14.30
2022-10-11T21:56:16.161Z,13.70
2022-10-11T21:58:43.134Z,11.00
2022-10-11T22:01:11.784Z,10.95
2022-10-11T22:03:38.594Z,8.13
2022-10-11T22:06:05.409Z,14.07
2022-10-11T22:08:32.567Z,9.07
2022-10-11T22:11:00.443Z,9.73
2022-10-11T22:13:29.193Z,10.90
2022-10-11T22:15:56.417Z,10.13
2022-10-11T22:18:24.360Z,10.32
2022-10-11T22:20:51.599Z,12.55
2022-10-11T22:23:19.254Z,13.68
2022-10-11T22:25:46.387Z,9.77
2022-10-11T22:28:13.732Z,13.65
2022-10-11T22:30:40.644Z,9.30
2022-10-11T22:33:07.451Z,11.88
2022-10-11T22:35:37.978Z,13.02
2022-10-11T22:38:06.325Z,9.75
2022-10-11T22:40:33.100Z,10.90
2022-10-11T22:42:59.904Z,13.13
2022-10-11T22:45:26.720Z,13.20
2022-10-11T22:47:53.523Z,12.20
2022-10-11T22:50:20.331Z,15.48
2022-10-11T22:52:47.367Z,13.65
2022-10-11T22:55:19.735Z,13.27
2022-10-11T22:57:47.104Z,12.10
2022-10-11T23:00:14.628Z,15.63
2022-10-11T23:02:41.344Z,10.10
2022-10-11T23:05:08.335Z,13.18
2022-10-11T23:07:35.380Z,10.07
2022-10-11T23:10:02.857Z,12.38
2022-10-11T23:12:29.619Z,11.90
2022-10-11T23:14:56.446Z,12.32
2022-10-11T23:17:23.166Z,11.63
2022-10-11T23:19:50.667Z,17.67
2022-10-11T23:22:17.384Z,14.98
2022-10-11T23:24:44.152Z,14.20
2022-10-11T23:27:11.131Z,13.75
2022-10-11T23:29:41.135Z,13.52
2022-10-11T23:32:08.973Z,11.75
2022-10-11T23:34:35.814Z,13.00
2022-10-11T23:37:02.770Z,13.85
2022-10-11T23:39:29.607Z,13.65
2022-10-11T23:41:56.430Z,11.20
2022-10-11T23:44:23.192Z,11.15
2022-10-11T23:46:49.928Z,10.73
2022-10-11T23:49:16.706Z,15.07
2022-10-11T23:51:43.445Z,16.30
2022-10-11T23:54:10.237Z,10.32
2022-10-11T23:56:37.029Z,11.43
2022-10-11T23:59:03.899Z,14.38
